createdAt,value
2018-09-25T00:02:48.178Z,101308.52
2018-09-25T00:08:57.919Z,101310.77
2018-09-25T00:15:08.219Z,101315.51
2018-09-25T00:21:18.034Z,101316.42
2018-09-25T00:27:27.992Z,101311.47
2018-09-25T00:33:37.636Z,101309.81
2018-09-25T00:39:47.270Z,101315.26
2018-09-25T00:45:56.989Z,101314.80
2018-09-25T00:52:06.702Z,101317.71
2018-09-25T00:58:16.881Z,101327.55
2018-09-25T01:04:26.557Z,101325.61
2018-09-25T01:10:36.751Z,101329.34
2018-09-25T01:16:46.330Z,101336.97
2018-09-25T01:22:56.232Z,101342.98
2018-09-25T01:29:06.137Z,101338.86
2018-09-25T01:35:15.943Z,101341.87
2018-09-25T01:41:26.176Z,101345.28
2018-09-25T01:47:43.015Z,101356.33
2018-09-25T01:53:52.870Z,101362.98
2018-09-25T02:00:02.582Z,101369.13
2018-09-25T02:06:12.545Z,101361.72
2018-09-25T02:12:22.542Z,101359.31
2018-09-25T02:18:32.444Z,101360.03
2018-09-25T02:24:42.207Z,101364.86
2018-09-25T02:30:52.115Z,101376.36
2018-09-25T02:37:01.992Z,101388.55
2018-09-25T02:43:12.359Z,101386.86
2018-09-25T02:49:22.142Z,101386.52
2018-09-25T02:55:32.321Z,101395.95
2018-09-25T03:01:42.080Z,101388.59
2018-09-25T03:07:52.110Z,101392.24
2018-09-25T03:14:01.962Z,101389.18
2018-09-25T03:20:11.717Z,101394.02
2018-09-25T03:26:21.558Z,101409.57
2018-09-25T03:32:31.350Z,101419.87
2018-09-25T03:38:41.329Z,101412.97
2018-09-25T03:44:51.718Z,101415.75
2018-09-25T03:51:01.498Z,101420.66
2018-09-25T03:57:18.148Z,101430.75
2018-09-25T04:03:27.816Z,101436.67
2018-09-25T04:09:37.654Z,101436.45
2018-09-25T04:15:47.479Z,101440.38
2018-09-25T04:21:57.277Z,101444.89
2018-09-25T04:28:07.014Z,101450.41
2018-09-25T04:34:16.902Z,101458.77
2018-09-25T04:40:26.986Z,101471.45
2018-09-25T04:46:36.828Z,101476.28
2018-09-25T04:52:46.557Z,101479.22
2018-09-25T04:58:56.669Z,101482.78
2018-09-25T05:05:06.477Z,101485.47
2018-09-25T05:11:16.317Z,101487.58
2018-09-25T05:17:26.046Z,101487.78
2018-09-25T05:23:35.909Z,101498.78
2018-09-25T05:29:45.707Z,101508.27
2018-09-25T05:35:55.596Z,101514.87
2018-09-25T05:42:05.135Z,101521.92
2018-09-25T05:48:14.918Z,101524.74
2018-09-25T05:54:25.115Z,101528.85
2018-09-25T06:00:34.961Z,101520.19
2018-09-25T06:06:45.016Z,101518.69
2018-09-25T06:12:54.801Z,101530.38
2018-09-25T06:19:04.684Z,101535.05
2018-09-25T06:25:14.604Z,101541.77
2018-09-25T06:31:24.258Z,101545.83
2018-09-25T06:37:34.001Z,101552.28
2018-09-25T06:43:44.134Z,101561.05
2018-09-25T06:49:54.040Z,101567.86
2018-09-25T06:56:03.890Z,101581.06
2018-09-25T07:02:13.611Z,101582.13
2018-09-25T07:08:23.772Z,101581.06
2018-09-25T07:14:33.532Z,101589.17
2018-09-25T07:20:43.834Z,101590.31
2018-09-25T07:26:53.818Z,101589.84
2018-09-25T07:33:03.689Z,101592.83
2018-09-25T07:39:15.237Z,101604.17
2018-09-25T07:45:24.990Z,101609.65
2018-09-25T07:51:34.570Z,101618.38
2018-09-25T07:57:44.478Z,101618.99
2018-09-25T08:03:54.600Z,101625.44
2018-09-25T08:10:04.294Z,101630.30
2018-09-25T08:16:14.285Z,101641.34
2018-09-25T08:22:24.034Z,101640.57
2018-09-25T08:28:33.849Z,101647.25
2018-09-25T08:34:43.674Z,101638.04
2018-09-25T08:40:53.514Z,101654.88
2018-09-25T08:47:03.440Z,101645.61
2018-09-25T08:53:13.159Z,101651.05
2018-09-25T08:59:23.359Z,101649.16
2018-09-25T09:05:33.076Z,101661.06
2018-09-25T09:11:42.823Z,101661.34
2018-09-25T09:17:52.572Z,101655.17
2018-09-25T09:24:02.537Z,101657.97
2018-09-25T09:30:12.363Z,101664.10
2018-09-25T09:36:22.274Z,101664.77
2018-09-25T09:42:38.860Z,101664.88
2018-09-25T09:48:48.643Z,101651.73
2018-09-25T09:54:58.558Z,101667.42
2018-09-25T10:01:08.333Z,101670.88
2018-09-25T10:07:18.340Z,101674.02
2018-09-25T10:13:27.831Z,101670.47
2018-09-25T10:19:37.610Z,101674.55
2018-09-25T10:25:47.384Z,101669.12
2018-09-25T10:31:57.514Z,101667.04
2018-09-25T10:38:07.391Z,101669.88
2018-09-25T10:44:17.781Z,101664.83
2018-09-25T10:50:27.571Z,101660.13
2018-09-25T10:56:37.342Z,101674.02
2018-09-25T11:02:47.227Z,101662.98
2018-09-25T11:08:57.324Z,101662.14
2018-09-25T11:15:06.997Z,101657.30
2018-09-25T11:21:16.810Z,101671.86
2018-09-25T11:27:26.594Z,101671.44
2018-09-25T11:33:36.290Z,101678.28
2018-09-25T11:39:45.995Z,101660.94
2018-09-25T11:45:55.883Z,101648.14
2018-09-25T11:52:05.532Z,101646.66
2018-09-25T11:58:15.242Z,101636.25
2018-09-25T12:04:25.466Z,101634.20
2018-09-25T12:10:35.102Z,101628.77
2018-09-25T12:16:44.945Z,101626.18
2018-09-25T12:22:54.976Z,101621.65
2018-09-25T12:29:04.829Z,101618.58
2018-09-25T12:35:14.760Z,101621.16
2018-09-25T12:41:24.270Z,101618.34
2018-09-25T12:47:34.298Z,101611.84
2018-09-25T12:53:44.176Z,101600.56
2018-09-25T12:59:53.914Z,101604.86
2018-09-25T13:06:03.803Z,101592.59
2018-09-25T13:12:14.044Z,101596.30
2018-09-25T13:18:24.481Z,101590.55
2018-09-25T13:24:34.120Z,101593.67
2018-09-25T13:30:44.217Z,101587.00
2018-09-25T13:36:54.210Z,101575.17
2018-09-25T13:43:04.102Z,101574.66
2018-09-25T13:49:14.124Z,101565.95
2018-09-25T13:55:23.987Z,101574.00
2018-09-25T14:01:33.865Z,101554.70
2018-09-25T14:07:43.568Z,101552.55
2018-09-25T14:13:53.316Z,101543.05
2018-09-25T14:20:03.136Z,101546.12
2018-09-25T14:26:12.930Z,101539.50
2018-09-25T14:32:22.703Z,101537.93
2018-09-25T14:38:32.794Z,101539.14
2018-09-25T14:44:42.638Z,101536.13
2018-09-25T14:50:52.160Z,101524.16
2018-09-25T14:57:02.255Z,101508.75
2018-09-25T15:03:12.063Z,101512.88
2018-09-25T15:09:22.187Z,101505.09
2018-09-25T15:15:31.958Z,101485.70
2018-09-25T15:21:42.231Z,101487.09
2018-09-25T15:27:52.211Z,101488.70
2018-09-25T15:34:01.817Z,101484.06
2018-09-25T15:40:12.024Z,101479.52
2018-09-25T15:46:21.830Z,101492.52
2018-09-25T15:52:31.547Z,101493.67
2018-09-25T15:58:41.688Z,101491.61
2018-09-25T16:04:51.247Z,101498.37
2018-09-25T16:11:00.876Z,101506.77
2018-09-25T16:17:10.805Z,101504.84
2018-09-25T16:23:20.365Z,101515.41
2018-09-25T16:29:30.058Z,101524.14
2018-09-25T16:35:40.335Z,101533.14
2018-09-25T16:41:50.180Z,101541.62
2018-09-25T16:47:59.872Z,101546.16
2018-09-25T16:54:09.510Z,101540.62
2018-09-25T17:00:19.283Z,101537.32
2018-09-25T17:06:29.015Z,101551.11
2018-09-25T17:12:38.790Z,101540.82
2018-09-25T17:18:49.215Z,101548.84
2018-09-25T17:24:59.101Z,101567.50
2018-09-25T17:31:08.932Z,101579.10
2018-09-25T17:37:18.789Z,101593.61
2018-09-25T17:43:28.851Z,101588.52
2018-09-25T17:49:38.651Z,101602.91
2018-09-25T17:55:48.548Z,101587.71
2018-09-25T18:01:58.266Z,101599.12
2018-09-25T18:08:08.096Z,101597.92
2018-09-25T18:14:18.212Z,101602.29
2018-09-25T18:20:28.116Z,101598.71
2018-09-25T18:26:38.317Z,101597.24
2018-09-25T18:32:48.794Z,101592.74
2018-09-25T18:38:58.666Z,101582.54
2018-09-25T18:45:08.694Z,101558.81
2018-09-25T18:51:18.310Z,101549.11
2018-09-25T18:57:28.073Z,101552.56
2018-09-25T19:03:37.934Z,101541.08
2018-09-25T19:09:47.671Z,101542.30
2018-09-25T19:15:57.367Z,101542.52
2018-09-25T19:22:07.146Z,101553.31
2018-09-25T19:28:16.981Z,101568.47
2018-09-25T19:34:26.638Z,101585.03
2018-09-25T19:40:36.752Z,101599.04
2018-09-25T19:46:46.906Z,101580.75
2018-09-25T19:52:57.406Z,101579.77
2018-09-25T19:59:07.315Z,101578.12
2018-09-25T20:05:17.859Z,101579.11
2018-09-25T20:11:27.444Z,101587.30
2018-09-25T20:17:37.208Z,101595.87
2018-09-25T20:23:47.139Z,101602.31
2018-09-25T20:29:56.851Z,101595.09
2018-09-25T20:36:06.719Z,101590.31
2018-09-25T20:42:16.810Z,101606.08
2018-09-25T20:48:26.651Z,101600.02
2018-09-25T20:54:37.015Z,101586.77
2018-09-25T21:00:46.779Z,101576.28
2018-09-25T21:06:56.950Z,101581.64
2018-09-25T21:13:06.710Z,101586.03
2018-09-25T21:19:16.588Z,101577.30
2018-09-25T21:25:26.352Z,101571.20
2018-09-25T21:31:36.458Z,101561.88
2018-09-25T21:37:46.336Z,101571.02
2018-09-25T21:43:56.195Z,101554.14
2018-09-25T21:50:05.946Z,101550.80
2018-09-25T21:56:15.538Z,101555.77
2018-09-25T22:02:25.301Z,101541.45
2018-09-25T22:08:35.576Z,101542.69
2018-09-25T22:14:45.299Z,101531.28
2018-09-25T22:20:55.196Z,101540.44
2018-09-25T22:27:04.941Z,101526.67
2018-09-25T22:33:14.528Z,101526.44
2018-09-25T22:39:24.188Z,101505.25
2018-09-25T22:45:33.867Z,101496.53
2018-09-25T22:51:43.584Z,101482.17
2018-09-25T22:57:53.814Z,101492.88
2018-09-25T23:04:03.957Z,101489.45
2018-09-25T23:10:13.815Z,101499.56
2018-09-25T23:16:24.315Z,101497.21
2018-09-25T23:22:34.074Z,101505.45
2018-09-25T23:28:43.825Z,101498.06
2018-09-25T23:34:53.628Z,101508.13
2018-09-25T23:41:11.691Z,101511.52
2018-09-25T23:47:21.453Z,101479.03
2018-09-25T23:53:29.268Z,101462.54
2018-09-25T23:59:47.875Z,101471.44
